createdAt,value
2023-03-13T00:02:01.620Z,98192.56
2023-03-13T00:04:28.989Z,98198.31
2023-03-13T00:06:56.269Z,98186.97
2023-03-13T00:09:23.862Z,98192.53
2023-03-13T00:11:51.163Z,98197.03
2023-03-13T00:14:18.437Z,98184.00
2023-03-13T00:16:45.741Z,98185.19
2023-03-13T00:19:13.335Z,98184.56
2023-03-13T00:21:41.661Z,98186.78
2023-03-13T00:24:10.352Z,98171.69
2023-03-13T00:26:37.757Z,98192.84
2023-03-13T00:29:05.616Z,98172.94
2023-03-13T00:31:33.001Z,98175.28
2023-03-13T00:34:01.618Z,98174.91
2023-03-13T00:36:30.179Z,98169.69
2023-03-13T00:38:58.166Z,98166.78
2023-03-13T00:41:26.721Z,98182.94
2023-03-13T00:43:54.274Z,98183.16
2023-03-13T00:46:23.003Z,98176.34
2023-03-13T00:48:50.452Z,98178.69
2023-03-13T00:51:18.784Z,98178.38
2023-03-13T00:53:47.052Z,98169.69
2023-03-13T00:56:16.049Z,98171.09
2023-03-13T00:58:44.443Z,98172.13
2023-03-13T01:01:14.865Z,98173.22
2023-03-13T01:03:43.487Z,98174.00
2023-03-13T01:06:12.823Z,98169.25
2023-03-13T01:08:40.252Z,98159.34
2023-03-13T01:11:09.194Z,98153.00
2023-03-13T01:13:36.662Z,98162.91
2023-03-13T01:16:16.531Z,98156.78
2023-03-13T01:18:45.699Z,98146.09
2023-03-13T01:21:13.657Z,98147.31
2023-03-13T01:23:41.202Z,98148.00
2023-03-13T01:26:10.286Z,98146.25
2023-03-13T01:28:38.919Z,98139.16
2023-03-13T01:31:14.248Z,98142.00
2023-03-13T01:33:41.909Z,98136.44
2023-03-13T01:36:09.678Z,98133.19
2023-03-13T01:38:37.617Z,98122.75
2023-03-13T01:41:05.550Z,98132.47
2023-03-13T01:43:34.910Z,98136.69
2023-03-13T01:46:11.311Z,98130.78
2023-03-13T01:48:47.693Z,98124.06
2023-03-13T01:51:37.448Z,98125.78
2023-03-13T01:54:05.094Z,98125.09
2023-03-13T01:56:36.498Z,98121.34
2023-03-13T01:59:05.345Z,98128.88
2023-03-13T02:01:34.485Z,98128.19
2023-03-13T02:04:05.430Z,98125.06
2023-03-13T02:06:35.111Z,98117.97
2023-03-13T02:09:14.974Z,98111.97
2023-03-13T02:11:55.222Z,98122.03
2023-03-13T02:14:24.112Z,98102.88
2023-03-13T02:16:52.875Z,98108.19
2023-03-13T02:19:25.163Z,98105.09
2023-03-13T02:22:00.104Z,98100.50
2023-03-13T02:24:38.594Z,98097.34
2023-03-13T02:27:06.192Z,98089.97
2023-03-13T02:29:36.603Z,98094.78
2023-03-13T02:32:04.281Z,98088.25
2023-03-13T02:34:33.994Z,98085.50
2023-03-13T02:37:02.779Z,98100.34
2023-03-13T02:39:32.173Z,98083.88
2023-03-13T02:42:00.320Z,98093.44
2023-03-13T02:44:28.327Z,98097.91
2023-03-13T02:46:55.705Z,98095.56
2023-03-13T02:49:28.078Z,98094.69
2023-03-13T02:51:58.367Z,98087.56
2023-03-13T02:54:31.640Z,98074.94
2023-03-13T02:57:01.283Z,98082.72
2023-03-13T02:59:29.146Z,98080.16
2023-03-13T03:01:57.946Z,98085.25
2023-03-13T03:04:26.359Z,98076.56
2023-03-13T03:06:56.461Z,98078.03
2023-03-13T03:09:24.517Z,98079.91
2023-03-13T03:11:55.903Z,98072.00
2023-03-13T03:14:23.643Z,98071.38
2023-03-13T03:16:52.417Z,98078.53
2023-03-13T03:19:19.722Z,98068.88
2023-03-13T03:21:49.785Z,98084.25
2023-03-13T03:24:19.510Z,98084.72
2023-03-13T03:26:47.368Z,98078.56
2023-03-13T03:29:22.558Z,98080.03
2023-03-13T03:31:52.429Z,98086.31
2023-03-13T03:34:19.893Z,98089.38
2023-03-13T03:36:47.621Z,98079.72
2023-03-13T03:39:15.016Z,98071.34
2023-03-13T03:41:43.020Z,98080.41
2023-03-13T03:44:11.647Z,98084.81
2023-03-13T03:46:49.537Z,98076.38
2023-03-13T03:49:17.636Z,98079.03
2023-03-13T03:51:45.347Z,98092.41
2023-03-13T03:54:13.423Z,98075.16
2023-03-13T03:56:40.817Z,98075.72
2023-03-13T03:59:08.311Z,98078.53
2023-03-13T04:01:47.720Z,98069.75
2023-03-13T04:04:20.081Z,98082.31
2023-03-13T04:06:51.746Z,98073.94
2023-03-13T04:09:19.123Z,98073.41
2023-03-13T04:11:46.452Z,98074.44
2023-03-13T04:14:13.907Z,98082.97
2023-03-13T04:16:41.309Z,98075.84
2023-03-13T04:19:08.856Z,98082.97
2023-03-13T04:21:36.536Z,98077.94
2023-03-13T04:24:08.556Z,98070.88
2023-03-13T04:26:37.546Z,98085.03
2023-03-13T04:29:06.641Z,98079.88
2023-03-13T04:31:46.615Z,98079.53
2023-03-13T04:34:34.263Z,98077.34
2023-03-13T04:37:13.659Z,98085.44
2023-03-13T04:39:40.903Z,98074.25
2023-03-13T04:42:38.205Z,98081.66
2023-03-13T04:45:17.790Z,98074.09
2023-03-13T04:48:03.487Z,98073.19
2023-03-13T04:51:02.954Z,98085.78
2023-03-13T04:53:42.006Z,98081.25
2023-03-13T04:56:42.102Z,98070.09
2023-03-13T04:59:19.807Z,98067.38
2023-03-13T05:02:20.895Z,98063.09
2023-03-13T05:05:08.311Z,98065.06
2023-03-13T05:07:54.086Z,98048.75
2023-03-13T05:10:30.461Z,98052.22
2023-03-13T05:13:06.748Z,98056.88
2023-03-13T05:15:52.606Z,98055.72
2023-03-13T05:18:39.654Z,98053.78
2023-03-13T05:21:29.862Z,98056.91
2023-03-13T05:24:26.406Z,98052.63
2023-03-13T05:27:30.520Z,98047.88
2023-03-13T05:30:22.012Z,98040.78
2023-03-13T05:33:12.559Z,98045.91
2023-03-13T05:36:06.130Z,98034.13
2023-03-13T05:38:56.688Z,98041.69
2023-03-13T05:41:42.495Z,98045.34
2023-03-13T05:44:24.839Z,98034.59
2023-03-13T05:47:10.646Z,98047.84
2023-03-13T05:49:40.661Z,98036.75
2023-03-13T05:52:28.426Z,98037.63
2023-03-13T05:55:14.127Z,98027.06
2023-03-13T05:57:55.170Z,98028.94
2023-03-13T06:00:51.780Z,98038.34
2023-03-13T06:03:48.271Z,98028.22
2023-03-13T06:06:17.723Z,98027.66
2023-03-13T06:08:49.719Z,98021.53
2023-03-13T06:11:17.144Z,98020.28
2023-03-13T06:13:44.780Z,98029.06
2023-03-13T06:16:34.843Z,98035.16
2023-03-13T06:19:14.720Z,98026.44
2023-03-13T06:21:42.156Z,98029.25
2023-03-13T06:24:09.501Z,98024.69
2023-03-13T06:26:36.788Z,98018.78
2023-03-13T06:29:04.293Z,98027.22
2023-03-13T06:31:32.297Z,97999.66
2023-03-13T06:33:59.615Z,98008.03
2023-03-13T06:36:26.941Z,98009.25
2023-03-13T06:38:54.168Z,98011.09
2023-03-13T06:41:23.683Z,98009.59
2023-03-13T06:43:50.977Z,98009.31
2023-03-13T06:46:20.142Z,98013.75
2023-03-13T06:48:48.454Z,98003.72
2023-03-13T06:51:16.615Z,98012.66
2023-03-13T06:53:44.131Z,97993.00
2023-03-13T06:56:11.798Z,97996.06
2023-03-13T06:58:39.131Z,97998.88
2023-03-13T07:01:10.749Z,97991.78
2023-03-13T07:03:38.700Z,97992.91
2023-03-13T07:06:06.424Z,97977.19
2023-03-13T07:08:33.694Z,97968.25
2023-03-13T07:11:08.302Z,97975.38
2023-03-13T07:13:35.985Z,97965.44
2023-03-13T07:16:07.253Z,97957.38
2023-03-13T07:18:34.949Z,97963.97
2023-03-13T07:21:05.404Z,97948.84
2023-03-13T07:23:34.165Z,97953.59
2023-03-13T07:26:03.193Z,97943.38
2023-03-13T07:28:31.600Z,97929.28
2023-03-13T07:31:06.208Z,97925.72
2023-03-13T07:33:33.651Z,97936.00
2023-03-13T07:36:02.534Z,97913.75
2023-03-13T07:38:31.455Z,97908.88
2023-03-13T07:41:00.949Z,97915.78
2023-03-13T07:43:32.838Z,97905.94
2023-03-13T07:46:01.674Z,97907.81
2023-03-13T07:48:30.968Z,97920.38
2023-03-13T07:50:58.539Z,97896.47
2023-03-13T07:53:26.416Z,97914.34
2023-03-13T07:56:00.985Z,97932.22
2023-03-13T07:58:30.263Z,97869.66
2023-03-13T08:00:57.834Z,97869.91
2023-03-13T08:03:25.670Z,97854.00
2023-03-13T08:06:04.091Z,97879.63
2023-03-13T08:08:31.443Z,97874.69
2023-03-13T08:11:02.742Z,97863.84
2023-03-13T08:13:36.934Z,97857.06
2023-03-13T08:16:05.481Z,97865.81
2023-03-13T08:18:35.426Z,97883.75
2023-03-13T08:21:04.266Z,97869.75
2023-03-13T08:23:31.666Z,97825.72
2023-03-13T08:26:06.061Z,97825.53
2023-03-13T08:28:33.393Z,97818.81
2023-03-13T08:31:07.059Z,97831.72
2023-03-13T08:33:34.376Z,97787.88
2023-03-13T08:36:08.576Z,97805.94
2023-03-13T08:38:35.937Z,97804.41
2023-03-13T08:41:03.233Z,97796.59
2023-03-13T08:43:30.577Z,97802.34
2023-03-13T08:45:57.900Z,97796.09
2023-03-13T08:48:25.227Z,97771.75
2023-03-13T08:51:04.925Z,97793.03
2023-03-13T08:53:33.108Z,97775.59
2023-03-13T08:56:00.785Z,97782.50
2023-03-13T08:58:28.427Z,97754.66
2023-03-13T09:00:55.962Z,97734.13
2023-03-13T09:03:23.317Z,97750.81
2023-03-13T09:05:56.267Z,97757.16
2023-03-13T09:08:23.938Z,97751.28
2023-03-13T09:11:01.282Z,97746.94
2023-03-13T09:13:29.265Z,97749.72
2023-03-13T09:16:01.627Z,97746.69
2023-03-13T09:18:29.427Z,97729.75
2023-03-13T09:20:56.831Z,97726.91
2023-03-13T09:23:24.465Z,97758.53
2023-03-13T09:25:55.585Z,97733.31
2023-03-13T09:28:23.557Z,97744.03
2023-03-13T09:30:51.009Z,97715.78
2023-03-13T09:33:19.190Z,97714.53
2023-03-13T09:35:51.312Z,97745.00
2023-03-13T09:38:19.347Z,97758.22
2023-03-13T09:40:56.641Z,97764.88
2023-03-13T09:43:43.140Z,97713.09
2023-03-13T09:46:18.868Z,97725.69
2023-03-13T09:48:48.475Z,97701.16
2023-03-13T09:51:18.847Z,97674.03
2023-03-13T09:53:50.073Z,97695.84
2023-03-13T09:56:18.211Z,97678.44
2023-03-13T09:58:52.528Z,97678.19
2023-03-13T10:01:23.180Z,97689.75
2023-03-13T10:04:05.178Z,97728.34
2023-03-13T10:06:35.433Z,97700.56
2023-03-13T10:09:03.073Z,97686.88
2023-03-13T10:11:42.990Z,97679.91
2023-03-13T10:14:13.275Z,97691.63
2023-03-13T10:17:04.075Z,97700.81
2023-03-13T10:19:33.410Z,97680.69
2023-03-13T10:22:03.360Z,97662.16
2023-03-13T10:24:38.240Z,97665.97
2023-03-13T10:27:05.955Z,97679.94
2023-03-13T10:29:34.067Z,97664.28
2023-03-13T10:32:06.289Z,97659.81
2023-03-13T10:34:52.387Z,97645.34
2023-03-13T10:37:24.432Z,97644.81
2023-03-13T10:39:52.172Z,97670.66
2023-03-13T10:42:19.454Z,97646.22
2023-03-13T10:44:46.901Z,97663.78
2023-03-13T10:47:14.911Z,97655.75
2023-03-13T10:49:53.490Z,97671.66
2023-03-13T10:52:50.199Z,97634.97
2023-03-13T10:55:19.048Z,97639.25
2023-03-13T10:58:06.151Z,97632.75
2023-03-13T11:00:41.502Z,97649.56
2023-03-13T11:03:19.674Z,97627.97
2023-03-13T11:06:01.189Z,97641.72
2023-03-13T11:08:29.683Z,97608.00
2023-03-13T11:11:16.293Z,97628.81
2023-03-13T11:13:44.828Z,97584.00
2023-03-13T11:16:27.139Z,97619.28
2023-03-13T11:18:54.380Z,97612.56
2023-03-13T11:21:25.139Z,97596.53
2023-03-13T11:24:02.465Z,97606.47
2023-03-13T11:26:35.981Z,97606.25
2023-03-13T11:29:06.345Z,97592.16
2023-03-13T11:31:36.368Z,97613.50
2023-03-13T11:34:06.707Z,97575.66
2023-03-13T11:36:37.173Z,97577.84
2023-03-13T11:39:23.256Z,97586.22
2023-03-13T11:41:53.868Z,97569.25
2023-03-13T11:44:45.991Z,97576.22
2023-03-13T11:47:23.099Z,97596.59
2023-03-13T11:50:09.155Z,97566.41
2023-03-13T11:52:36.541Z,97559.97
2023-03-13T11:55:12.989Z,97566.19
2023-03-13T11:57:49.428Z,97549.94
2023-03-13T12:00:23.062Z,97553.91
2023-03-13T12:03:10.985Z,97555.34
2023-03-13T12:05:47.676Z,97564.41
2023-03-13T12:08:21.181Z,97576.81
2023-03-13T12:10:53.438Z,97551.09
2023-03-13T12:13:23.579Z,97563.13
2023-03-13T12:15:52.921Z,97561.28
2023-03-13T12:18:35.762Z,97517.66
2023-03-13T12:21:03.042Z,97539.41
2023-03-13T12:23:30.325Z,97556.22
2023-03-13T12:26:03.876Z,97535.34
2023-03-13T12:28:40.422Z,97513.94
2023-03-13T12:31:13.902Z,97528.00
2023-03-13T12:33:45.802Z,97516.66
2023-03-13T12:36:15.126Z,97566.47
2023-03-13T12:38:50.312Z,97510.94
2023-03-13T12:41:26.386Z,97508.44
2023-03-13T12:44:07.607Z,97497.59
2023-03-13T12:46:36.548Z,97515.66
2023-03-13T12:49:13.155Z,97517.31
2023-03-13T12:51:57.906Z,97495.13
2023-03-13T12:54:25.157Z,97495.47
2023-03-13T12:57:04.983Z,97492.81
2023-03-13T12:59:32.237Z,97485.44
2023-03-13T13:02:00.476Z,97504.13
2023-03-13T13:04:30.845Z,97500.50
2023-03-13T13:07:02.660Z,97473.84
2023-03-13T13:09:30.391Z,97530.38
2023-03-13T13:12:04.658Z,97503.50
2023-03-13T13:14:31.938Z,97497.16
2023-03-13T13:17:11.563Z,97513.31
2023-03-13T13:19:42.036Z,97481.22
2023-03-13T13:22:28.029Z,97496.44
2023-03-13T13:24:57.122Z,97453.47
2023-03-13T13:27:51.052Z,97460.81
2023-03-13T13:30:18.347Z,97458.88
2023-03-13T13:32:53.303Z,97466.59
2023-03-13T13:35:20.692Z,97522.22
2023-03-13T13:37:49.616Z,97460.09
2023-03-13T13:40:17.287Z,97479.44
2023-03-13T13:42:52.674Z,97458.31
2023-03-13T13:45:25.889Z,97449.94
2023-03-13T13:48:13.041Z,97474.31
2023-03-13T13:51:00.414Z,97473.41
2023-03-13T13:53:32.083Z,97485.81
2023-03-13T13:55:59.763Z,97468.81
2023-03-13T13:58:31.714Z,97470.06
2023-03-13T14:01:01.251Z,97452.88
2023-03-13T14:03:30.085Z,97444.53
2023-03-13T14:06:01.200Z,97446.31
2023-03-13T14:08:33.446Z,97449.72
2023-03-13T14:11:22.622Z,97452.94
2023-03-13T14:14:08.767Z,97426.44
2023-03-13T14:16:37.411Z,97464.78
2023-03-13T14:19:04.987Z,97428.72
2023-03-13T14:21:33.498Z,97440.72
2023-03-13T14:24:00.799Z,97453.25
2023-03-13T14:26:29.596Z,97443.09
2023-03-13T14:28:58.921Z,97439.31
2023-03-13T14:31:26.157Z,97434.19
2023-03-13T14:33:54.000Z,97474.34
2023-03-13T14:36:21.466Z,97462.03
2023-03-13T14:38:53.247Z,97413.09
2023-03-13T14:41:23.446Z,97426.16
2023-03-13T14:43:50.756Z,97415.06
2023-03-13T14:46:38.135Z,97420.66
2023-03-13T14:49:06.922Z,97402.97
2023-03-13T14:51:38.695Z,97403.78
2023-03-13T14:54:06.059Z,97395.63
2023-03-13T14:56:38.189Z,97442.91
2023-03-13T14:59:15.693Z,97431.38
2023-03-13T15:01:43.560Z,97424.59
2023-03-13T15:04:11.041Z,97437.16
2023-03-13T15:06:38.308Z,97390.97
2023-03-13T15:09:20.211Z,97380.34
2023-03-13T15:11:54.987Z,97400.81
2023-03-13T15:14:31.996Z,97389.41
2023-03-13T15:16:59.364Z,97399.28
2023-03-13T15:19:26.873Z,97395.31
2023-03-13T15:21:55.272Z,97408.66
2023-03-13T15:24:23.683Z,97391.44
2023-03-13T15:26:51.012Z,97369.41
2023-03-13T15:29:20.452Z,97384.41
2023-03-13T15:31:48.007Z,97365.94
2023-03-13T15:34:16.472Z,97388.31
2023-03-13T15:36:43.812Z,97352.16
2023-03-13T15:39:21.080Z,97383.16
2023-03-13T15:41:48.391Z,97364.25
2023-03-13T15:44:15.825Z,97354.84
2023-03-13T15:46:43.443Z,97369.53
2023-03-13T15:49:13.247Z,97390.03
2023-03-13T15:51:40.592Z,97376.56
2023-03-13T15:54:08.030Z,97360.13
2023-03-13T15:56:36.802Z,97388.94
2023-03-13T15:59:12.203Z,97386.47
2023-03-13T16:01:39.913Z,97396.47
2023-03-13T16:04:07.807Z,97350.63
2023-03-13T16:06:35.252Z,97332.47
2023-03-13T16:09:05.942Z,97331.09
2023-03-13T16:11:33.898Z,97347.66
2023-03-13T16:14:01.494Z,97349.38
2023-03-13T16:16:30.195Z,97313.41
2023-03-13T16:18:58.174Z,97324.50
2023-03-13T16:21:26.936Z,97297.72
2023-03-13T16:23:54.298Z,97339.97
2023-03-13T16:26:23.378Z,97323.22
2023-03-13T16:28:50.991Z,97320.53
2023-03-13T16:31:24.758Z,97319.03
2023-03-13T16:33:53.883Z,97346.06
2023-03-13T16:36:23.154Z,97334.31
2023-03-13T16:38:50.965Z,97331.69
2023-03-13T16:41:19.734Z,97337.94
2023-03-13T16:43:47.406Z,97321.53
2023-03-13T16:46:16.383Z,97336.06
2023-03-13T16:48:44.675Z,97279.28
2023-03-13T16:51:19.705Z,97331.06
2023-03-13T16:53:49.951Z,97321.16
2023-03-13T16:56:21.051Z,97319.31
2023-03-13T16:58:48.418Z,97346.25
2023-03-13T17:01:15.993Z,97328.13
2023-03-13T17:03:44.117Z,97318.25
2023-03-13T17:06:15.161Z,97322.19
2023-03-13T17:08:44.321Z,97307.00
2023-03-13T17:11:17.300Z,97291.03
2023-03-13T17:13:46.140Z,97293.69
2023-03-13T17:16:15.495Z,97286.66
2023-03-13T17:18:43.627Z,97302.28
2023-03-13T17:21:15.575Z,97306.84
2023-03-13T17:23:43.047Z,97294.78
2023-03-13T17:26:20.741Z,97278.69
2023-03-13T17:28:53.065Z,97277.91
2023-03-13T17:31:22.245Z,97285.56
2023-03-13T17:33:50.741Z,97294.03
2023-03-13T17:36:20.378Z,97288.56
2023-03-13T17:38:48.481Z,97299.50
2023-03-13T17:41:17.386Z,97302.59
2023-03-13T17:43:45.208Z,97274.91
2023-03-13T17:46:23.333Z,97268.19
2023-03-13T17:48:52.106Z,97276.81
2023-03-13T17:51:21.335Z,97269.09
2023-03-13T17:53:49.390Z,97273.03
2023-03-13T17:56:21.641Z,97273.22
2023-03-13T17:58:50.667Z,97280.91
2023-03-13T18:01:19.064Z,97272.88
2023-03-13T18:03:46.454Z,97278.50
2023-03-13T18:06:19.795Z,97267.13
2023-03-13T18:08:47.711Z,97242.41
2023-03-13T18:11:16.746Z,97223.19
2023-03-13T18:13:45.217Z,97272.44
2023-03-13T18:16:21.918Z,97227.41
2023-03-13T18:18:49.348Z,97245.88
2023-03-13T18:21:16.657Z,97239.75
2023-03-13T18:23:43.952Z,97233.34
2023-03-13T18:26:22.705Z,97228.03
2023-03-13T18:29:00.410Z,97238.84
2023-03-13T18:31:32.299Z,97232.25
2023-03-13T18:34:00.136Z,97231.31
2023-03-13T18:36:28.417Z,97237.88
2023-03-13T18:38:56.162Z,97218.03
2023-03-13T18:41:23.814Z,97216.34
2023-03-13T18:43:51.722Z,97220.69
2023-03-13T18:46:30.814Z,97193.03
2023-03-13T18:48:58.305Z,97219.88
2023-03-13T18:51:26.191Z,97205.19
2023-03-13T18:53:54.032Z,97217.31
2023-03-13T18:56:21.390Z,97217.19
2023-03-13T18:58:50.568Z,97238.91
2023-03-13T19:01:19.781Z,97200.19
2023-03-13T19:03:47.879Z,97235.34
2023-03-13T19:06:28.728Z,97219.91
2023-03-13T19:08:57.655Z,97218.22
2023-03-13T19:11:27.704Z,97194.06
2023-03-13T19:13:55.801Z,97201.81
2023-03-13T19:16:23.140Z,97212.78
2023-03-13T19:18:50.748Z,97202.00
2023-03-13T19:21:19.516Z,97208.94
2023-03-13T19:23:48.542Z,97216.59
2023-03-13T19:26:25.115Z,97201.53
2023-03-13T19:28:52.568Z,97214.50
2023-03-13T19:31:19.902Z,97206.13
2023-03-13T19:33:47.965Z,97213.16
2023-03-13T19:36:16.857Z,97205.63
2023-03-13T19:38:44.542Z,97184.88
2023-03-13T19:41:12.665Z,97203.34
2023-03-13T19:43:40.325Z,97202.50
2023-03-13T19:46:19.720Z,97205.81
2023-03-13T19:48:47.693Z,97205.03
2023-03-13T19:51:15.284Z,97189.09
2023-03-13T19:53:42.859Z,97217.22
2023-03-13T19:56:13.284Z,97199.81
2023-03-13T19:58:40.526Z,97212.81
2023-03-13T20:01:16.831Z,97197.97
2023-03-13T20:03:45.789Z,97194.97
2023-03-13T20:06:20.624Z,97205.88
2023-03-13T20:08:48.338Z,97210.22
2023-03-13T20:11:16.445Z,97189.63
2023-03-13T20:13:43.937Z,97199.78
2023-03-13T20:16:12.167Z,97216.47
2023-03-13T20:18:40.229Z,97207.94
2023-03-13T20:21:07.822Z,97193.06
2023-03-13T20:23:35.148Z,97208.41
2023-03-13T20:26:08.832Z,97195.44
2023-03-13T20:28:37.088Z,97214.53
2023-03-13T20:31:04.876Z,97214.25
2023-03-13T20:33:32.624Z,97204.72
2023-03-13T20:36:00.966Z,97216.34
2023-03-13T20:38:28.802Z,97206.47
2023-03-13T20:40:57.262Z,97202.75
2023-03-13T20:43:25.314Z,97197.22
2023-03-13T20:45:52.945Z,97212.97
2023-03-13T20:48:20.995Z,97218.88
2023-03-13T20:50:54.539Z,97225.56
2023-03-13T20:53:22.237Z,97196.88
2023-03-13T20:55:49.852Z,97193.41
2023-03-13T20:58:17.665Z,97206.88
2023-03-13T21:00:44.977Z,97201.22
2023-03-13T21:03:15.340Z,97209.09
2023-03-13T21:05:42.787Z,97210.69
2023-03-13T21:08:10.817Z,97203.66
2023-03-13T21:10:38.776Z,97211.75
2023-03-13T21:13:06.116Z,97209.97
2023-03-13T21:15:33.461Z,97214.53
2023-03-13T21:18:01.432Z,97199.81
2023-03-13T21:20:29.258Z,97211.75
2023-03-13T21:22:56.754Z,97207.69
2023-03-13T21:25:24.105Z,97209.75
2023-03-13T21:27:51.428Z,97204.91
2023-03-13T21:30:20.432Z,97208.34
2023-03-13T21:32:48.265Z,97203.63
2023-03-13T21:35:16.973Z,97204.22
2023-03-13T21:37:44.348Z,97219.91
2023-03-13T21:40:12.368Z,97214.41
2023-03-13T21:42:39.836Z,97214.50
2023-03-13T21:45:07.629Z,97215.09
2023-03-13T21:47:38.297Z,97210.84
2023-03-13T21:50:07.172Z,97216.16
2023-03-13T21:52:40.765Z,97204.97
2023-03-13T21:55:10.501Z,97212.16
2023-03-13T21:57:37.783Z,97204.47
2023-03-13T22:00:08.348Z,97212.78
2023-03-13T22:02:37.262Z,97217.91
2023-03-13T22:05:05.001Z,97217.16
2023-03-13T22:07:32.426Z,97215.69
2023-03-13T22:09:59.721Z,97218.81
2023-03-13T22:12:27.619Z,97215.44
2023-03-13T22:14:57.399Z,97223.81
2023-03-13T22:17:25.232Z,97218.16
2023-03-13T22:19:52.582Z,97221.00
2023-03-13T22:22:22.185Z,97219.63
2023-03-13T22:24:49.628Z,97228.69
2023-03-13T22:27:17.980Z,97221.59
2023-03-13T22:29:45.377Z,97210.91
2023-03-13T22:32:12.688Z,97208.00
2023-03-13T22:34:45.145Z,97200.34
2023-03-13T22:37:12.637Z,97211.50
2023-03-13T22:39:40.003Z,97205.59
2023-03-13T22:42:07.535Z,97211.50
2023-03-13T22:44:34.883Z,97208.16
2023-03-13T22:47:02.220Z,97206.38
2023-03-13T22:49:29.782Z,97219.22
2023-03-13T22:51:59.284Z,97221.81
2023-03-13T22:54:26.579Z,97216.97
2023-03-13T22:56:53.968Z,97226.13
2023-03-13T22:59:21.211Z,97221.63
2023-03-13T23:01:48.584Z,97230.66
2023-03-13T23:04:16.091Z,97229.31
2023-03-13T23:06:43.388Z,97223.72
2023-03-13T23:09:10.748Z,97227.41
2023-03-13T23:11:38.493Z,97234.47
2023-03-13T23:14:06.029Z,97225.53
2023-03-13T23:16:33.494Z,97226.88
2023-03-13T23:19:01.855Z,97233.75
2023-03-13T23:21:29.239Z,97225.34
2023-03-13T23:23:56.529Z,97231.97
2023-03-13T23:26:23.767Z,97231.50
2023-03-13T23:28:51.096Z,97223.81
2023-03-13T23:31:19.886Z,97222.59
2023-03-13T23:33:48.123Z,97226.84
2023-03-13T23:36:16.907Z,97228.34
2023-03-13T23:38:44.583Z,97231.09
2023-03-13T23:41:13.501Z,97222.81
2023-03-13T23:43:41.080Z,97236.38
2023-03-13T23:46:18.486Z,97236.59
2023-03-13T23:48:45.843Z,97234.81
2023-03-13T23:51:13.371Z,97242.28
2023-03-13T23:53:41.885Z,97244.97
2023-03-13T23:56:09.414Z,97239.63
2023-03-13T23:58:36.799Z,97253.97
